Grand Haven, Michigan
Current Conditions -  °F | °C
As of 8:29 AM on Friday 28 Nov 2014 (Local Time) from KMKG Reporting Station
Overcast Overcast  
Wind Chill: 11°   Ceiling: 2700
Heat Index: 21°   Visibility: 10mi
Dew Point: 15°   Wind: 8mph
Humidity: 78%   Direction: 140°SE
Pressure: 30.27"   Gusts: NA
Location:  43.06°N, 86.22°W
Report Text: KMKG 281329Z 14007KT 10SM BKN027 OVC032 M06/M09 A3027 RMK AO2 T10611094
Loading
Personal Weather Stations






























Interactive Weather Map New forecast layout! Learn more

10-Day Weather Forecast

Advertisements
Track Severe Weather on mobile